sensor_id;sensor_type;location;lat;lon;timestamp;temperature;humidity
44579;DHT22;37422;51.402;0.016;2022-08-02T00:00:57;20.50;90.40
44579;DHT22;37422;51.402;0.016;2022-08-02T00:03:25;20.50;90.40
44579;DHT22;37422;51.402;0.016;2022-08-02T00:05:56;20.50;90.50
44579;DHT22;37422;51.402;0.016;2022-08-02T00:08:24;20.50;90.50
44579;DHT22;37422;51.402;0.016;2022-08-02T00:10:52;20.50;90.60
44579;DHT22;37422;51.402;0.016;2022-08-02T00:13:19;20.40;90.70
44579;DHT22;37422;51.402;0.016;2022-08-02T00:15:47;20.40;90.70
44579;DHT22;37422;51.402;0.016;2022-08-02T00:18:15;20.40;90.80
44579;DHT22;37422;51.402;0.016;2022-08-02T00:20:43;20.40;90.80
44579;DHT22;37422;51.402;0.016;2022-08-02T00:23:11;20.40;90.90
44579;DHT22;37422;51.402;0.016;2022-08-02T00:25:38;20.40;91.00
44579;DHT22;37422;51.402;0.016;2022-08-02T00:28:23;20.30;91.10
44579;DHT22;37422;51.402;0.016;2022-08-02T00:30:56;20.30;91.10
44579;DHT22;37422;51.402;0.016;2022-08-02T00:33:25;20.20;91.40
44579;DHT22;37422;51.402;0.016;2022-08-02T00:36:13;20.20;91.30
44579;DHT22;37422;51.402;0.016;2022-08-02T00:38:41;20.20;91.40
44579;DHT22;37422;51.402;0.016;2022-08-02T00:41:14;20.20;91.50
44579;DHT22;37422;51.402;0.016;2022-08-02T00:43:43;20.20;91.70
44579;DHT22;37422;51.402;0.016;2022-08-02T00:46:12;20.20;91.60
44579;DHT22;37422;51.402;0.016;2022-08-02T00:48:40;20.20;91.70
44579;DHT22;37422;51.402;0.016;2022-08-02T00:51:10;20.20;91.90
44579;DHT22;37422;51.402;0.016;2022-08-02T00:53:38;20.20;91.90
44579;DHT22;37422;51.402;0.016;2022-08-02T00:56:06;20.10;91.90
44579;DHT22;37422;51.402;0.016;2022-08-02T00:58:34;20.20;92.10
44579;DHT22;37422;51.402;0.016;2022-08-02T01:01:02;20.20;92.20
44579;DHT22;37422;51.402;0.016;2022-08-02T01:03:30;20.20;92.20
44579;DHT22;37422;51.402;0.016;2022-08-02T01:05:57;20.10;92.40
44579;DHT22;37422;51.402;0.016;2022-08-02T01:08:38;20.10;92.40
44579;DHT22;37422;51.402;0.016;2022-08-02T01:11:06;20.10;92.50
44579;DHT22;37422;51.402;0.016;2022-08-02T01:13:34;20.10;92.50
44579;DHT22;37422;51.402;0.016;2022-08-02T01:16:13;20.10;92.60
44579;DHT22;37422;51.402;0.016;2022-08-02T01:18:45;20.10;92.80
44579;DHT22;37422;51.402;0.016;2022-08-02T01:30:33;20.00;93.10
44579;DHT22;37422;51.402;0.016;2022-08-02T01:33:03;20.00;93.20
44579;DHT22;37422;51.402;0.016;2022-08-02T01:35:38;20.00;93.20
44579;DHT22;37422;51.402;0.016;2022-08-02T01:38:39;19.90;93.40
44579;DHT22;37422;51.402;0.016;2022-08-02T01:41:09;20.00;94.00
44579;DHT22;37422;51.402;0.016;2022-08-02T01:43:39;19.90;93.60
44579;DHT22;37422;51.402;0.016;2022-08-02T01:46:10;19.90;93.60
44579;DHT22;37422;51.402;0.016;2022-08-02T01:48:39;19.90;93.80
44579;DHT22;37422;51.402;0.016;2022-08-02T01:51:12;19.90;94.70
44579;DHT22;37422;51.402;0.016;2022-08-02T01:53:44;19.80;93.80
44579;DHT22;37422;51.402;0.016;2022-08-02T01:56:18;19.90;93.90
44579;DHT22;37422;51.402;0.016;2022-08-02T01:58:47;19.80;94.00
44579;DHT22;37422;51.402;0.016;2022-08-02T02:01:17;19.80;94.00
44579;DHT22;37422;51.402;0.016;2022-08-02T02:03:47;19.80;94.30
44579;DHT22;37422;51.402;0.016;2022-08-02T02:06:16;19.80;94.30
44579;DHT22;37422;51.402;0.016;2022-08-02T02:08:44;19.80;94.30
44579;DHT22;37422;51.402;0.016;2022-08-02T02:11:12;19.80;94.40
44579;DHT22;37422;51.402;0.016;2022-08-02T02:14:01;19.80;94.50
44579;DHT22;37422;51.402;0.016;2022-08-02T02:16:31;19.80;94.50
44579;DHT22;37422;51.402;0.016;2022-08-02T02:19:01;19.70;94.60
44579;DHT22;37422;51.402;0.016;2022-08-02T02:21:29;19.70;94.60
44579;DHT22;37422;51.402;0.016;2022-08-02T02:23:58;19.70;95.30
44579;DHT22;37422;51.402;0.016;2022-08-02T02:26:26;19.70;94.70
44579;DHT22;37422;51.402;0.016;2022-08-02T02:29:03;19.70;95.00
44579;DHT22;37422;51.402;0.016;2022-08-02T02:31:35;19.60;95.00
44579;DHT22;37422;51.402;0.016;2022-08-02T02:34:08;19.60;95.30
44579;DHT22;37422;51.402;0.016;2022-08-02T02:36:44;19.60;95.40
44579;DHT22;37422;51.402;0.016;2022-08-02T02:39:14;19.60;95.50
44579;DHT22;37422;51.402;0.016;2022-08-02T02:41:45;19.60;95.50
44579;DHT22;37422;51.402;0.016;2022-08-02T02:44:17;19.60;95.60
44579;DHT22;37422;51.402;0.016;2022-08-02T02:46:47;19.60;95.70
44579;DHT22;37422;51.402;0.016;2022-08-02T02:49:18;19.60;95.70
44579;DHT22;37422;51.402;0.016;2022-08-02T02:51:47;19.60;95.80
44579;DHT22;37422;51.402;0.016;2022-08-02T02:54:15;19.60;95.90
44579;DHT22;37422;51.402;0.016;2022-08-02T02:57:04;19.60;96.00
44579;DHT22;37422;51.402;0.016;2022-08-02T02:59:35;19.60;96.00
44579;DHT22;37422;51.402;0.016;2022-08-02T03:02:17;19.60;96.10
44579;DHT22;37422;51.402;0.016;2022-08-02T03:04:45;19.50;96.10
44579;DHT22;37422;51.402;0.016;2022-08-02T03:07:25;19.50;96.20
44579;DHT22;37422;51.402;0.016;2022-08-02T03:09:53;19.50;96.30
44579;DHT22;37422;51.402;0.016;2022-08-02T03:12:22;19.50;96.30
44579;DHT22;37422;51.402;0.016;2022-08-02T03:15:04;19.40;96.40
44579;DHT22;37422;51.402;0.016;2022-08-02T03:17:43;19.40;96.40
44579;DHT22;37422;51.402;0.016;2022-08-02T03:20:16;19.40;96.60
44579;DHT22;37422;51.402;0.016;2022-08-02T03:22:46;19.40;96.50
44579;DHT22;37422;51.402;0.016;2022-08-02T03:25:14;19.40;96.50
44579;DHT22;37422;51.402;0.016;2022-08-02T03:27:42;19.40;96.50
44579;DHT22;37422;51.402;0.016;2022-08-02T03:30:11;19.40;96.60
44579;DHT22;37422;51.402;0.016;2022-08-02T03:32:41;19.40;97.00
44579;DHT22;37422;51.402;0.016;2022-08-02T03:35:11;19.30;96.60
44579;DHT22;37422;51.402;0.016;2022-08-02T03:37:40;19.30;96.80
44579;DHT22;37422;51.402;0.016;2022-08-02T03:40:10;19.30;96.80
44579;DHT22;37422;51.402;0.016;2022-08-02T03:42:39;19.40;96.80
44579;DHT22;37422;51.402;0.016;2022-08-02T03:45:09;19.40;96.90
44579;DHT22;37422;51.402;0.016;2022-08-02T03:47:38;19.30;97.20
44579;DHT22;37422;51.402;0.016;2022-08-02T03:50:12;19.30;96.90
44579;DHT22;37422;51.402;0.016;2022-08-02T03:52:43;19.30;97.30
44579;DHT22;37422;51.402;0.016;2022-08-02T03:55:11;19.30;97.20
44579;DHT22;37422;51.402;0.016;2022-08-02T03:57:43;19.30;97.60
44579;DHT22;37422;51.402;0.016;2022-08-02T04:00:14;19.20;97.60
44579;DHT22;37422;51.402;0.016;2022-08-02T04:02:44;19.20;97.70
44579;DHT22;37422;51.402;0.016;2022-08-02T04:05:12;19.20;97.90
44579;DHT22;37422;51.402;0.016;2022-08-02T04:07:40;19.20;97.90
44579;DHT22;37422;51.402;0.016;2022-08-02T04:10:30;19.10;98.30
44579;DHT22;37422;51.402;0.016;2022-08-02T04:12:58;19.10;98.50
44579;DHT22;37422;51.402;0.016;2022-08-02T04:15:25;19.10;98.80
44579;DHT22;37422;51.402;0.016;2022-08-02T04:17:55;19.10;98.80
44579;DHT22;37422;51.402;0.016;2022-08-02T04:20:28;19.00;98.70
44579;DHT22;37422;51.402;0.016;2022-08-02T04:23:00;19.10;99.00
44579;DHT22;37422;51.402;0.016;2022-08-02T04:25:31;19.00;99.20
44579;DHT22;37422;51.402;0.016;2022-08-02T04:28:05;19.00;99.70
44579;DHT22;37422;51.402;0.016;2022-08-02T04:30:47;19.00;99.70
44579;DHT22;37422;51.402;0.016;2022-08-02T04:33:18;19.00;99.50
44579;DHT22;37422;51.402;0.016;2022-08-02T04:35:46;19.00;99.90
44579;DHT22;37422;51.402;0.016;2022-08-02T04:38:14;19.00;99.90
44579;DHT22;37422;51.402;0.016;2022-08-02T04:40:53;19.00;99.90
44579;DHT22;37422;51.402;0.016;2022-08-02T04:43:22;19.00;99.90
44579;DHT22;37422;51.402;0.016;2022-08-02T04:45:53;19.00;99.90
44579;DHT22;37422;51.402;0.016;2022-08-02T04:48:22;19.00;99.90
44579;DHT22;37422;51.402;0.016;2022-08-02T04:50:50;19.00;99.90
44579;DHT22;37422;51.402;0.016;2022-08-02T04:53:18;19.00;99.90
44579;DHT22;37422;51.402;0.016;2022-08-02T04:55:46;19.00;99.90
44579;DHT22;37422;51.402;0.016;2022-08-02T04:58:14;19.00;99.90
44579;DHT22;37422;51.402;0.016;2022-08-02T05:01:02;19.00;99.90
44579;DHT22;37422;51.402;0.016;2022-08-02T05:03:30;19.00;99.90
44579;DHT22;37422;51.402;0.016;2022-08-02T05:05:57;19.10;99.90
44579;DHT22;37422;51.402;0.016;2022-08-02T05:08:27;19.10;99.90
44579;DHT22;37422;51.402;0.016;2022-08-02T05:10:54;19.10;99.90
44579;DHT22;37422;51.402;0.016;2022-08-02T05:13:22;19.10;99.90
44579;DHT22;37422;51.402;0.016;2022-08-02T05:15:50;19.10;99.90
44579;DHT22;37422;51.402;0.016;2022-08-02T05:18:18;19.20;99.90
44579;DHT22;37422;51.402;0.016;2022-08-02T05:20:45;19.20;99.90
44579;DHT22;37422;51.402;0.016;2022-08-02T05:23:13;19.20;99.90
44579;DHT22;37422;51.402;0.016;2022-08-02T05:25:40;19.30;99.90
44579;DHT22;37422;51.402;0.016;2022-08-02T05:28:08;19.30;99.90
44579;DHT22;37422;51.402;0.016;2022-08-02T05:30:38;19.30;99.90
44579;DHT22;37422;51.402;0.016;2022-08-02T05:33:06;19.40;99.90
44579;DHT22;37422;51.402;0.016;2022-08-02T05:35:34;19.40;99.90
44579;DHT22;37422;51.402;0.016;2022-08-02T05:38:02;19.40;99.90
44579;DHT22;37422;51.402;0.016;2022-08-02T05:40:30;19.40;99.90
44579;DHT22;37422;51.402;0.016;2022-08-02T05:42:58;19.40;99.90
44579;DHT22;37422;51.402;0.016;2022-08-02T05:45:25;19.50;99.90
44579;DHT22;37422;51.402;0.016;2022-08-02T05:47:53;19.50;99.90
44579;DHT22;37422;51.402;0.016;2022-08-02T05:50:21;19.50;99.90
44579;DHT22;37422;51.402;0.016;2022-08-02T05:53:00;19.50;99.90
44579;DHT22;37422;51.402;0.016;2022-08-02T05:55:34;19.60;99.90
44579;DHT22;37422;51.402;0.016;2022-08-02T05:58:19;19.70;99.90
44579;DHT22;37422;51.402;0.016;2022-08-02T06:00:52;19.80;99.90
44579;DHT22;37422;51.402;0.016;2022-08-02T06:03:35;19.90;99.90
44579;DHT22;37422;51.402;0.016;2022-08-02T06:06:12;20.10;99.90
44579;DHT22;37422;51.402;0.016;2022-08-02T06:08:46;20.20;99.90
44579;DHT22;37422;51.402;0.016;2022-08-02T06:11:20;20.40;99.90
44579;DHT22;37422;51.402;0.016;2022-08-02T06:13:48;20.60;99.90
44579;DHT22;37422;51.402;0.016;2022-08-02T06:16:20;20.70;99.90
44579;DHT22;37422;51.402;0.016;2022-08-02T06:19:00;20.90;99.90
44579;DHT22;37422;51.402;0.016;2022-08-02T06:21:28;21.00;99.90
44579;DHT22;37422;51.402;0.016;2022-08-02T06:24:17;21.10;99.90
44579;DHT22;37422;51.402;0.016;2022-08-02T06:26:48;21.20;99.90
44579;DHT22;37422;51.402;0.016;2022-08-02T06:29:22;21.20;99.90
44579;DHT22;37422;51.402;0.016;2022-08-02T06:31:51;21.30;99.90
44579;DHT22;37422;51.402;0.016;2022-08-02T06:34:19;21.30;99.90
44579;DHT22;37422;51.402;0.016;2022-08-02T06:37:22;21.30;99.90
44579;DHT22;37422;51.402;0.016;2022-08-02T06:40:01;21.30;99.90
44579;DHT22;37422;51.402;0.016;2022-08-02T06:42:44;21.40;99.90
44579;DHT22;37422;51.402;0.016;2022-08-02T06:45:15;21.50;99.90
44579;DHT22;37422;51.402;0.016;2022-08-02T06:47:43;21.40;99.90
44579;DHT22;37422;51.402;0.016;2022-08-02T06:50:11;21.40;99.90
44579;DHT22;37422;51.402;0.016;2022-08-02T06:52:39;21.50;99.90
44579;DHT22;37422;51.402;0.016;2022-08-02T06:55:06;21.60;99.90
44579;DHT22;37422;51.402;0.016;2022-08-02T06:57:34;21.70;99.80
44579;DHT22;37422;51.402;0.016;2022-08-02T07:00:04;21.80;99.80
44579;DHT22;37422;51.402;0.016;2022-08-02T07:02:35;21.80;99.60
44579;DHT22;37422;51.402;0.016;2022-08-02T07:05:04;21.90;99.50
44579;DHT22;37422;51.402;0.016;2022-08-02T07:07:32;22.00;99.50
44579;DHT22;37422;51.402;0.016;2022-08-02T07:10:00;22.20;99.50
44579;DHT22;37422;51.402;0.016;2022-08-02T07:12:32;22.20;99.20
44579;DHT22;37422;51.402;0.016;2022-08-02T07:15:03;22.40;99.20
44579;DHT22;37422;51.402;0.016;2022-08-02T07:17:31;22.50;98.90
44579;DHT22;37422;51.402;0.016;2022-08-02T07:19:59;22.60;97.90
44579;DHT22;37422;51.402;0.016;2022-08-02T07:22:28;22.60;98.40
44579;DHT22;37422;51.402;0.016;2022-08-02T07:24:57;22.60;98.30
44579;DHT22;37422;51.402;0.016;2022-08-02T07:27:26;22.60;98.30
44579;DHT22;37422;51.402;0.016;2022-08-02T07:29:55;22.70;98.20
44579;DHT22;37422;51.402;0.016;2022-08-02T07:32:25;22.80;98.20
44579;DHT22;37422;51.402;0.016;2022-08-02T07:34:54;22.90;98.10
44579;DHT22;37422;51.402;0.016;2022-08-02T07:37:24;23.10;98.10
44579;DHT22;37422;51.402;0.016;2022-08-02T07:40:13;23.20;97.80
44579;DHT22;37422;51.402;0.016;2022-08-02T07:42:51;23.40;97.60
44579;DHT22;37422;51.402;0.016;2022-08-02T07:45:25;23.40;97.10
44579;DHT22;37422;51.402;0.016;2022-08-02T07:47:53;23.40;97.20
44579;DHT22;37422;51.402;0.016;2022-08-02T07:50:21;23.50;97.10
44579;DHT22;37422;51.402;0.016;2022-08-02T07:52:49;23.50;97.10
44579;DHT22;37422;51.402;0.016;2022-08-02T07:55:25;23.70;97.20
44579;DHT22;37422;51.402;0.016;2022-08-02T07:58:10;23.90;97.00
44579;DHT22;37422;51.402;0.016;2022-08-02T08:00:43;23.90;96.70
44579;DHT22;37422;51.402;0.016;2022-08-02T08:03:12;23.90;96.00
44579;DHT22;37422;51.402;0.016;2022-08-02T08:05:40;23.80;96.30
44579;DHT22;37422;51.402;0.016;2022-08-02T08:08:07;23.90;95.60
44579;DHT22;37422;51.402;0.016;2022-08-02T08:10:43;23.90;96.20
44579;DHT22;37422;51.402;0.016;2022-08-02T08:13:11;23.90;96.30
44579;DHT22;37422;51.402;0.016;2022-08-02T08:15:38;24.00;96.30
44579;DHT22;37422;51.402;0.016;2022-08-02T08:18:20;24.30;96.30
44579;DHT22;37422;51.402;0.016;2022-08-02T08:20:54;24.50;96.00
44579;DHT22;37422;51.402;0.016;2022-08-02T08:23:23;24.80;95.90
44579;DHT22;37422;51.402;0.016;2022-08-02T08:25:54;25.10;95.80
44579;DHT22;37422;51.402;0.016;2022-08-02T08:28:22;25.40;95.20
44579;DHT22;37422;51.402;0.016;2022-08-02T08:30:50;25.60;95.10
44579;DHT22;37422;51.402;0.016;2022-08-02T08:33:18;25.80;94.90
44579;DHT22;37422;51.402;0.016;2022-08-02T08:35:46;26.00;94.70
44579;DHT22;37422;51.402;0.016;2022-08-02T08:38:18;26.40;92.20
44579;DHT22;37422;51.402;0.016;2022-08-02T08:40:48;26.80;94.20
44579;DHT22;37422;51.402;0.016;2022-08-02T08:43:18;27.00;92.60
44579;DHT22;37422;51.402;0.016;2022-08-02T08:45:49;27.10;92.10
44579;DHT22;37422;51.402;0.016;2022-08-02T08:48:23;27.00;92.20
44579;DHT22;37422;51.402;0.016;2022-08-02T08:51:05;27.10;91.40
44579;DHT22;37422;51.402;0.016;2022-08-02T08:53:38;27.00;91.80
44579;DHT22;37422;51.402;0.016;2022-08-02T08:56:09;27.00;91.90
44579;DHT22;37422;51.402;0.016;2022-08-02T08:58:44;26.90;91.50
44579;DHT22;37422;51.402;0.016;2022-08-02T09:01:15;26.80;91.40
44579;DHT22;37422;51.402;0.016;2022-08-02T09:03:43;26.70;91.60
44579;DHT22;37422;51.402;0.016;2022-08-02T09:06:11;26.50;91.60
44579;DHT22;37422;51.402;0.016;2022-08-02T09:08:39;26.30;91.30
44579;DHT22;37422;51.402;0.016;2022-08-02T09:11:18;26.00;91.60
44579;DHT22;37422;51.402;0.016;2022-08-02T09:13:57;25.80;91.60
44579;DHT22;37422;51.402;0.016;2022-08-02T09:16:39;25.50;91.70
44579;DHT22;37422;51.402;0.016;2022-08-02T09:19:23;25.30;92.00
44579;DHT22;37422;51.402;0.016;2022-08-02T09:22:03;25.20;92.20
44579;DHT22;37422;51.402;0.016;2022-08-02T09:24:45;25.20;92.50
44579;DHT22;37422;51.402;0.016;2022-08-02T09:27:21;25.10;92.30
44579;DHT22;37422;51.402;0.016;2022-08-02T09:29:52;25.00;92.40
44579;DHT22;37422;51.402;0.016;2022-08-02T09:32:43;25.00;92.50
44579;DHT22;37422;51.402;0.016;2022-08-02T09:35:12;24.80;92.70
44579;DHT22;37422;51.402;0.016;2022-08-02T09:37:41;24.80;92.70
44579;DHT22;37422;51.402;0.016;2022-08-02T09:40:14;24.70;92.80
44579;DHT22;37422;51.402;0.016;2022-08-02T09:42:58;24.60;92.80
44579;DHT22;37422;51.402;0.016;2022-08-02T09:45:30;24.50;93.00
44579;DHT22;37422;51.402;0.016;2022-08-02T09:47:59;24.40;93.30
44579;DHT22;37422;51.402;0.016;2022-08-02T09:50:30;24.30;93.10
44579;DHT22;37422;51.402;0.016;2022-08-02T09:52:58;24.10;93.30
44579;DHT22;37422;51.402;0.016;2022-08-02T09:55:26;24.10;93.50
44579;DHT22;37422;51.402;0.016;2022-08-02T09:57:56;24.10;93.70
44579;DHT22;37422;51.402;0.016;2022-08-02T10:00:24;24.20;93.70
44579;DHT22;37422;51.402;0.016;2022-08-02T10:03:12;24.30;93.70
44579;DHT22;37422;51.402;0.016;2022-08-02T10:05:54;24.50;93.60
44579;DHT22;37422;51.402;0.016;2022-08-02T10:08:30;24.60;93.50
44579;DHT22;37422;51.402;0.016;2022-08-02T10:11:00;24.70;93.30
44579;DHT22;37422;51.402;0.016;2022-08-02T10:13:30;24.80;93.40
44579;DHT22;37422;51.402;0.016;2022-08-02T10:15:58;24.70;93.30
44579;DHT22;37422;51.402;0.016;2022-08-02T10:18:27;24.80;93.30
44579;DHT22;37422;51.402;0.016;2022-08-02T10:21:15;24.80;93.40
44579;DHT22;37422;51.402;0.016;2022-08-02T10:23:45;24.80;93.20
44579;DHT22;37422;51.402;0.016;2022-08-02T10:26:16;24.70;93.20
44579;DHT22;37422;51.402;0.016;2022-08-02T10:28:46;24.60;93.40
44579;DHT22;37422;51.402;0.016;2022-08-02T10:31:19;24.60;93.30
44579;DHT22;37422;51.402;0.016;2022-08-02T10:33:50;24.60;93.40
44579;DHT22;37422;51.402;0.016;2022-08-02T10:36:20;24.60;93.30
44579;DHT22;37422;51.402;0.016;2022-08-02T10:38:50;24.60;93.40
44579;DHT22;37422;51.402;0.016;2022-08-02T10:44:08;24.60;93.60
44579;DHT22;37422;51.402;0.016;2022-08-02T10:46:52;24.70;93.60
44579;DHT22;37422;51.402;0.016;2022-08-02T10:49:21;24.90;93.50
44579;DHT22;37422;51.402;0.016;2022-08-02T10:52:07;25.20;93.30
44579;DHT22;37422;51.402;0.016;2022-08-02T10:54:59;25.40;93.40
44579;DHT22;37422;51.402;0.016;2022-08-02T10:57:31;25.70;93.10
44579;DHT22;37422;51.402;0.016;2022-08-02T11:02:46;26.20;92.40
44579;DHT22;37422;51.402;0.016;2022-08-02T11:05:30;26.30;91.80
44579;DHT22;37422;51.402;0.016;2022-08-02T11:08:20;26.40;91.70
44579;DHT22;37422;51.402;0.016;2022-08-02T11:10:48;26.40;91.60
44579;DHT22;37422;51.402;0.016;2022-08-02T11:13:17;26.30;92.00
44579;DHT22;37422;51.402;0.016;2022-08-02T11:21:32;26.20;91.70
44579;DHT22;37422;51.402;0.016;2022-08-02T11:24:39;26.20;92.10
44579;DHT22;37422;51.402;0.016;2022-08-02T11:27:08;26.10;91.40
44579;DHT22;37422;51.402;0.016;2022-08-02T11:29:48;25.90;91.80
44579;DHT22;37422;51.402;0.016;2022-08-02T11:32:20;25.90;92.00
44579;DHT22;37422;51.402;0.016;2022-08-02T11:34:57;25.70;92.00
44579;DHT22;37422;51.402;0.016;2022-08-02T11:37:39;25.60;92.10
44579;DHT22;37422;51.402;0.016;2022-08-02T11:40:15;25.50;91.90
44579;DHT22;37422;51.402;0.016;2022-08-02T11:42:47;25.30;92.00
44579;DHT22;37422;51.402;0.016;2022-08-02T11:45:26;25.10;92.30
44579;DHT22;37422;51.402;0.016;2022-08-02T11:47:56;25.00;92.50
44579;DHT22;37422;51.402;0.016;2022-08-02T11:50:25;25.00;92.60
44579;DHT22;37422;51.402;0.016;2022-08-02T11:52:56;25.10;92.60
44579;DHT22;37422;51.402;0.016;2022-08-02T11:55:29;25.10;92.40
44579;DHT22;37422;51.402;0.016;2022-08-02T11:58:05;25.10;92.40
44579;DHT22;37422;51.402;0.016;2022-08-02T12:00:34;25.10;92.40
44579;DHT22;37422;51.402;0.016;2022-08-02T12:03:08;25.20;92.60
44579;DHT22;37422;51.402;0.016;2022-08-02T12:05:36;25.20;92.70
44579;DHT22;37422;51.402;0.016;2022-08-02T12:08:24;25.40;92.60
44579;DHT22;37422;51.402;0.016;2022-08-02T12:10:53;25.60;92.50
44579;DHT22;37422;51.402;0.016;2022-08-02T12:13:23;25.90;92.60
44579;DHT22;37422;51.402;0.016;2022-08-02T12:15:51;26.20;92.40
44579;DHT22;37422;51.402;0.016;2022-08-02T12:18:21;26.30;92.00
44579;DHT22;37422;51.402;0.016;2022-08-02T12:21:22;26.30;91.90
44579;DHT22;37422;51.402;0.016;2022-08-02T12:23:53;26.20;91.30
44579;DHT22;37422;51.402;0.016;2022-08-02T12:26:28;26.10;91.80
44579;DHT22;37422;51.402;0.016;2022-08-02T12:28:57;26.10;91.50
44579;DHT22;37422;51.402;0.016;2022-08-02T12:31:43;26.00;91.90
44579;DHT22;37422;51.402;0.016;2022-08-02T12:34:28;26.00;92.00
44579;DHT22;37422;51.402;0.016;2022-08-02T12:37:09;26.00;92.10
44579;DHT22;37422;51.402;0.016;2022-08-02T12:39:41;26.10;92.20
44579;DHT22;37422;51.402;0.016;2022-08-02T12:42:16;26.30;92.20
44579;DHT22;37422;51.402;0.016;2022-08-02T12:44:52;26.70;91.90
44579;DHT22;37422;51.402;0.016;2022-08-02T12:47:21;27.00;91.80
44579;DHT22;37422;51.402;0.016;2022-08-02T12:50:16;27.30;91.50
44579;DHT22;37422;51.402;0.016;2022-08-02T12:52:44;27.60;90.60
44579;DHT22;37422;51.402;0.016;2022-08-02T12:55:22;27.80;90.60
44579;DHT22;37422;51.402;0.016;2022-08-02T12:57:57;27.70;90.40
44579;DHT22;37422;51.402;0.016;2022-08-02T13:00:27;27.80;90.00
44579;DHT22;37422;51.402;0.016;2022-08-02T13:02:56;27.60;90.10
44579;DHT22;37422;51.402;0.016;2022-08-02T13:05:26;27.50;89.90
44579;DHT22;37422;51.402;0.016;2022-08-02T13:08:18;27.40;90.00
44579;DHT22;37422;51.402;0.016;2022-08-02T13:10:46;27.30;90.00
44579;DHT22;37422;51.402;0.016;2022-08-02T13:13:13;27.30;90.10
44579;DHT22;37422;51.402;0.016;2022-08-02T13:15:41;27.20;90.00
44579;DHT22;37422;51.402;0.016;2022-08-02T13:18:17;27.20;89.70
44579;DHT22;37422;51.402;0.016;2022-08-02T13:20:45;27.20;89.60
44579;DHT22;37422;51.402;0.016;2022-08-02T13:23:21;27.30;90.00
44579;DHT22;37422;51.402;0.016;2022-08-02T13:26:12;27.40;89.60
44579;DHT22;37422;51.402;0.016;2022-08-02T13:28:41;27.20;89.20
44579;DHT22;37422;51.402;0.016;2022-08-02T13:31:09;27.00;88.80
44579;DHT22;37422;51.402;0.016;2022-08-02T13:33:56;27.00;89.30
44579;DHT22;37422;51.402;0.016;2022-08-02T13:36:28;27.20;89.10
44579;DHT22;37422;51.402;0.016;2022-08-02T13:39:03;27.20;89.80
44579;DHT22;37422;51.402;0.016;2022-08-02T13:41:31;27.60;89.80
44579;DHT22;37422;51.402;0.016;2022-08-02T13:43:59;28.00;89.10
44579;DHT22;37422;51.402;0.016;2022-08-02T13:46:41;28.50;88.50
44579;DHT22;37422;51.402;0.016;2022-08-02T13:49:13;28.80;86.90
44579;DHT22;37422;51.402;0.016;2022-08-02T13:51:46;29.20;86.90
44579;DHT22;37422;51.402;0.016;2022-08-02T13:54:21;29.70;84.40
44579;DHT22;37422;51.402;0.016;2022-08-02T13:56:49;30.30;86.00
44579;DHT22;37422;51.402;0.016;2022-08-02T13:59:17;31.00;84.50
44579;DHT22;37422;51.402;0.016;2022-08-02T14:02:05;31.50;84.00
44579;DHT22;37422;51.402;0.016;2022-08-02T14:04:33;32.20;81.00
44579;DHT22;37422;51.402;0.016;2022-08-02T14:07:01;32.60;81.20
44579;DHT22;37422;51.402;0.016;2022-08-02T14:09:29;32.80;80.20
44579;DHT22;37422;51.402;0.016;2022-08-02T14:12:03;32.80;76.50
44579;DHT22;37422;51.402;0.016;2022-08-02T14:14:31;32.50;76.10
44579;DHT22;37422;51.402;0.016;2022-08-02T14:16:59;32.00;75.40
44579;DHT22;37422;51.402;0.016;2022-08-02T14:19:31;31.60;77.70
44579;DHT22;37422;51.402;0.016;2022-08-02T14:21:59;31.10;78.70
44579;DHT22;37422;51.402;0.016;2022-08-02T14:24:39;30.70;79.20
44579;DHT22;37422;51.402;0.016;2022-08-02T14:27:08;30.60;79.60
44579;DHT22;37422;51.402;0.016;2022-08-02T14:29:36;30.50;79.50
44579;DHT22;37422;51.402;0.016;2022-08-02T14:32:07;30.40;78.60
44579;DHT22;37422;51.402;0.016;2022-08-02T14:34:35;30.20;79.40
44579;DHT22;37422;51.402;0.016;2022-08-02T14:37:03;30.20;79.20
44579;DHT22;37422;51.402;0.016;2022-08-02T14:39:33;30.10;79.50
44579;DHT22;37422;51.402;0.016;2022-08-02T14:42:21;30.00;79.60
44579;DHT22;37422;51.402;0.016;2022-08-02T14:44:49;29.50;80.20
44579;DHT22;37422;51.402;0.016;2022-08-02T14:47:16;29.00;81.30
44579;DHT22;37422;51.402;0.016;2022-08-02T14:49:44;28.70;81.50
44579;DHT22;37422;51.402;0.016;2022-08-02T14:52:17;28.60;82.10
44579;DHT22;37422;51.402;0.016;2022-08-02T14:54:45;28.50;82.00
44579;DHT22;37422;51.402;0.016;2022-08-02T14:57:13;28.30;82.30
44579;DHT22;37422;51.402;0.016;2022-08-02T14:59:41;28.20;82.60
44579;DHT22;37422;51.402;0.016;2022-08-02T15:02:09;27.90;83.10
44579;DHT22;37422;51.402;0.016;2022-08-02T15:04:41;27.80;83.80
44579;DHT22;37422;51.402;0.016;2022-08-02T15:07:11;27.60;84.60
44579;DHT22;37422;51.402;0.016;2022-08-02T15:09:39;27.50;85.00
44579;DHT22;37422;51.402;0.016;2022-08-02T15:12:08;27.20;85.00
44579;DHT22;37422;51.402;0.016;2022-08-02T15:14:37;27.00;85.20
44579;DHT22;37422;51.402;0.016;2022-08-02T15:17:06;26.70;85.70
44579;DHT22;37422;51.402;0.016;2022-08-02T15:19:37;26.60;86.60
44579;DHT22;37422;51.402;0.016;2022-08-02T15:22:27;26.40;87.20
44579;DHT22;37422;51.402;0.016;2022-08-02T15:24:55;26.40;87.60
44579;DHT22;37422;51.402;0.016;2022-08-02T15:27:23;26.60;87.60
44579;DHT22;37422;51.402;0.016;2022-08-02T15:29:51;26.90;87.60
44579;DHT22;37422;51.402;0.016;2022-08-02T15:32:27;27.10;87.30
44579;DHT22;37422;51.402;0.016;2022-08-02T15:34:55;27.60;86.40
44579;DHT22;37422;51.402;0.016;2022-08-02T15:37:22;28.10;86.30
44579;DHT22;37422;51.402;0.016;2022-08-02T15:39:51;28.30;84.70
44579;DHT22;37422;51.402;0.016;2022-08-02T15:42:19;28.20;84.80
44579;DHT22;37422;51.402;0.016;2022-08-02T15:44:57;28.30;84.90
44579;DHT22;37422;51.402;0.016;2022-08-02T15:47:25;28.30;84.40
44579;DHT22;37422;51.402;0.016;2022-08-02T15:49:53;28.30;84.10
44579;DHT22;37422;51.402;0.016;2022-08-02T15:52:21;28.20;84.40
44579;DHT22;37422;51.402;0.016;2022-08-02T15:54:49;28.40;84.50
44579;DHT22;37422;51.402;0.016;2022-08-02T15:57:17;28.50;83.90
44579;DHT22;37422;51.402;0.016;2022-08-02T15:59:44;28.40;83.80
44579;DHT22;37422;51.402;0.016;2022-08-02T16:02:13;28.20;83.90
44579;DHT22;37422;51.402;0.016;2022-08-02T16:04:46;28.00;84.30
44579;DHT22;37422;51.402;0.016;2022-08-02T16:07:17;27.80;84.80
44579;DHT22;37422;51.402;0.016;2022-08-02T16:09:44;27.70;85.50
44579;DHT22;37422;51.402;0.016;2022-08-02T16:12:13;28.00;85.50
44579;DHT22;37422;51.402;0.016;2022-08-02T16:14:41;28.20;85.10
44579;DHT22;37422;51.402;0.016;2022-08-02T16:17:09;28.40;84.90
44579;DHT22;37422;51.402;0.016;2022-08-02T16:19:37;28.50;84.70
44579;DHT22;37422;51.402;0.016;2022-08-02T16:22:16;28.50;84.90